createdAt,value
2022-11-29T00:00:44.950Z,321.80
2022-11-29T00:01:45.013Z,312.00
2022-11-29T00:02:45.044Z,307.60
2022-11-29T00:03:44.930Z,316.20
2022-11-29T00:04:45.163Z,316.30
2022-11-29T00:05:44.919Z,316.50
2022-11-29T00:06:44.901Z,323.30
2022-11-29T00:07:44.946Z,306.00
2022-11-29T00:08:44.900Z,185.40
2022-11-29T00:09:44.848Z,121.90
2022-11-29T00:10:44.834Z,276.20
2022-11-29T00:11:44.830Z,322.80
2022-11-29T00:12:44.851Z,297.10
2022-11-29T00:13:44.852Z,309.20
2022-11-29T00:14:44.951Z,313.90
2022-11-29T00:15:44.786Z,307.60
2022-11-29T00:16:44.813Z,297.70
2022-11-29T00:17:44.814Z,316.90
2022-11-29T00:18:44.749Z,297.60
2022-11-29T00:19:44.736Z,280.20
2022-11-29T00:20:44.732Z,282.30
2022-11-29T00:21:44.736Z,291.10
2022-11-29T00:22:44.706Z,205.90
2022-11-29T00:23:44.735Z,117.00
2022-11-29T00:24:44.901Z,125.10
2022-11-29T00:25:44.684Z,219.50
2022-11-29T00:26:44.679Z,118.80
2022-11-29T00:27:44.645Z,134.20
2022-11-29T00:28:44.682Z,242.10
2022-11-29T00:29:44.654Z,343.10
2022-11-29T00:30:44.716Z,296.80
2022-11-29T00:31:44.615Z,300.00
2022-11-29T00:32:44.589Z,297.40
2022-11-29T00:33:44.613Z,300.10
2022-11-29T00:34:44.741Z,306.60
2022-11-29T00:35:44.571Z,298.80
2022-11-29T00:36:44.552Z,312.90
2022-11-29T00:37:44.557Z,296.90
2022-11-29T00:38:44.578Z,321.80
2022-11-29T00:39:44.542Z,326.00
2022-11-29T00:40:44.516Z,330.20
2022-11-29T00:41:44.495Z,311.70
2022-11-29T00:42:44.501Z,326.70
2022-11-29T00:43:44.524Z,132.10
2022-11-29T00:44:44.730Z,125.20
2022-11-29T00:45:44.510Z,229.10
2022-11-29T00:46:44.455Z,346.10
2022-11-29T00:47:44.445Z,338.90
2022-11-29T00:48:44.461Z,328.70
2022-11-29T00:49:44.399Z,325.80
2022-11-29T00:50:44.390Z,334.10
2022-11-29T00:51:44.382Z,325.80
2022-11-29T00:52:44.373Z,322.90
2022-11-29T00:53:44.413Z,334.10
2022-11-29T00:54:44.541Z,329.50
2022-11-29T00:55:44.356Z,134.00
2022-11-29T00:56:44.331Z,112.90
2022-11-29T00:57:44.312Z,193.20
2022-11-29T00:58:44.334Z,135.30
2022-11-29T00:59:44.301Z,145.50
2022-11-29T01:00:44.303Z,279.70
2022-11-29T01:01:44.334Z,162.00
2022-11-29T01:02:44.326Z,282.60
2022-11-29T01:03:44.312Z,330.40
2022-11-29T01:04:44.618Z,301.30
2022-11-29T01:05:44.254Z,312.80
2022-11-29T01:06:44.214Z,299.70
2022-11-29T01:07:44.276Z,285.00
2022-11-29T01:08:44.275Z,285.20
2022-11-29T01:09:44.193Z,297.00
2022-11-29T01:10:44.181Z,293.80
2022-11-29T01:11:44.171Z,276.60
2022-11-29T01:12:44.162Z,285.10
2022-11-29T01:13:44.156Z,277.60
2022-11-29T01:14:44.554Z,220.30
2022-11-29T01:15:44.149Z,308.70
2022-11-29T01:16:44.194Z,324.90
2022-11-29T01:17:44.094Z,302.00
2022-11-29T01:18:44.118Z,252.20
2022-11-29T01:19:49.308Z,173.60
2022-11-29T01:20:45.071Z,257.40
2022-11-29T01:21:44.048Z,281.80
2022-11-29T01:22:44.052Z,285.50
2022-11-29T01:23:44.024Z,263.10
2022-11-29T01:24:44.376Z,241.10
2022-11-29T01:25:44.004Z,229.00
2022-11-29T01:26:44.013Z,224.10
2022-11-29T01:27:44.002Z,216.20
2022-11-29T01:28:43.980Z,220.20
2022-11-29T01:29:43.992Z,232.30
2022-11-29T01:30:44.029Z,217.70
2022-11-29T01:31:43.936Z,217.20
2022-11-29T01:32:43.933Z,235.70
2022-11-29T01:33:43.922Z,216.40
2022-11-29T01:34:44.249Z,228.20
2022-11-29T01:35:43.893Z,218.80
2022-11-29T01:36:43.880Z,213.90
2022-11-29T01:37:43.880Z,236.10
2022-11-29T01:38:43.853Z,221.80
2022-11-29T01:39:43.873Z,211.50
2022-11-29T01:40:43.835Z,213.90
2022-11-29T01:41:43.834Z,213.00
2022-11-29T01:42:43.814Z,214.60
2022-11-29T01:43:43.814Z,210.90
2022-11-29T01:44:43.995Z,211.50
2022-11-29T01:45:43.851Z,210.70
2022-11-29T01:46:43.784Z,147.40
2022-11-29T01:47:43.756Z,174.40
2022-11-29T01:48:43.755Z,168.00
2022-11-29T01:49:43.770Z,200.10
2022-11-29T01:50:43.742Z,167.20
2022-11-29T01:51:43.718Z,161.10
2022-11-29T01:52:43.729Z,145.20
2022-11-29T01:53:43.710Z,180.10
2022-11-29T01:54:44.000Z,162.40
2022-11-29T01:55:43.692Z,153.10
2022-11-29T01:56:43.650Z,135.30
2022-11-29T01:57:43.650Z,164.60
2022-11-29T01:58:43.658Z,174.50
2022-11-29T01:59:43.657Z,152.90
2022-11-29T02:00:43.621Z,152.90
2022-11-29T02:01:43.663Z,101.50
2022-11-29T02:02:43.688Z,173.60
2022-11-29T02:03:43.574Z,173.00
2022-11-29T02:04:43.955Z,100.10
2022-11-29T02:05:43.567Z,159.10
2022-11-29T02:06:43.567Z,156.30
2022-11-29T02:07:43.586Z,119.00
2022-11-29T02:08:43.534Z,169.00
2022-11-29T02:09:43.541Z,205.70
2022-11-29T02:10:43.500Z,130.30
2022-11-29T02:11:43.503Z,166.20
2022-11-29T02:12:43.487Z,164.20
2022-11-29T02:13:43.469Z,142.50
2022-11-29T02:14:43.797Z,171.40
2022-11-29T02:15:43.502Z,125.80
2022-11-29T02:16:43.439Z,146.90
2022-11-29T02:17:43.412Z,175.90
2022-11-29T02:18:43.420Z,197.50
2022-11-29T02:19:43.446Z,258.10
2022-11-29T02:20:43.411Z,246.10
2022-11-29T02:21:43.369Z,233.50
2022-11-29T02:22:43.389Z,236.60
2022-11-29T02:23:43.352Z,180.20
2022-11-29T02:24:43.879Z,134.80
2022-11-29T02:25:43.324Z,188.90
2022-11-29T02:26:43.315Z,104.10
2022-11-29T02:27:43.301Z,157.00
2022-11-29T02:28:43.288Z,194.90
2022-11-29T02:29:43.318Z,165.40
2022-11-29T02:30:43.321Z,164.70
2022-11-29T02:31:43.274Z,195.80
2022-11-29T02:32:43.265Z,138.30
2022-11-29T02:33:43.232Z,174.00
2022-11-29T02:34:43.736Z,237.30
2022-11-29T02:35:43.209Z,259.90
2022-11-29T02:36:43.222Z,248.20
2022-11-29T02:37:43.188Z,233.40
2022-11-29T02:38:43.198Z,232.60
2022-11-29T02:39:43.221Z,223.90
2022-11-29T02:40:43.154Z,230.80
2022-11-29T02:41:43.155Z,116.80
2022-11-29T02:42:43.165Z,165.00
2022-11-29T02:43:43.136Z,117.90
2022-11-29T02:44:43.422Z,163.20
2022-11-29T02:45:43.191Z,139.40
2022-11-29T02:46:43.092Z,165.00
2022-11-29T02:47:43.068Z,127.30
2022-11-29T02:48:43.075Z,142.70
2022-11-29T02:49:43.048Z,171.30
2022-11-29T02:50:43.085Z,171.90
2022-11-29T02:51:43.026Z,165.60
2022-11-29T02:52:43.046Z,233.40
2022-11-29T02:53:43.008Z,244.70
2022-11-29T02:54:43.331Z,235.80
2022-11-29T02:55:43.010Z,238.30
2022-11-29T02:56:42.993Z,237.90
2022-11-29T02:57:42.974Z,224.70
2022-11-29T02:58:42.964Z,225.90
2022-11-29T02:59:42.929Z,220.90
2022-11-29T03:00:42.965Z,219.80
2022-11-29T03:01:42.996Z,213.00
2022-11-29T03:02:42.959Z,215.70
2022-11-29T03:03:42.912Z,109.50
2022-11-29T03:04:43.157Z,135.50
2022-11-29T03:05:42.927Z,130.50
2022-11-29T03:06:42.878Z,89.20
2022-11-29T03:07:42.875Z,144.10
2022-11-29T03:08:42.857Z,169.90
2022-11-29T03:09:42.832Z,144.20
2022-11-29T03:10:42.864Z,121.40
2022-11-29T03:11:42.808Z,138.00
2022-11-29T03:12:42.809Z,135.70
2022-11-29T03:13:42.780Z,107.40
2022-11-29T03:14:43.022Z,135.20
2022-11-29T03:15:42.832Z,152.60
2022-11-29T03:16:43.445Z,107.20
2022-11-29T03:17:42.763Z,90.50
2022-11-29T03:18:42.740Z,165.10
2022-11-29T03:19:42.751Z,110.40
2022-11-29T03:20:42.745Z,81.50
2022-11-29T03:21:42.714Z,171.70
2022-11-29T03:22:42.690Z,103.90
2022-11-29T03:23:42.672Z,103.10
2022-11-29T03:24:42.985Z,161.00
2022-11-29T03:25:42.699Z,89.10
2022-11-29T03:26:42.656Z,175.80
2022-11-29T03:27:42.656Z,102.90
2022-11-29T03:28:42.613Z,100.70
2022-11-29T03:29:42.643Z,162.40
2022-11-29T03:30:42.685Z,165.90
2022-11-29T03:31:42.585Z,118.90
2022-11-29T03:32:42.580Z,92.70
2022-11-29T03:33:42.549Z,145.70
2022-11-29T03:34:42.697Z,162.80
2022-11-29T03:35:42.560Z,107.00
2022-11-29T03:36:42.543Z,86.80
2022-11-29T03:37:42.518Z,116.40
2022-11-29T03:38:42.518Z,170.90
2022-11-29T03:39:42.495Z,106.60
2022-11-29T03:40:42.527Z,98.90
2022-11-29T03:41:42.470Z,167.40
2022-11-29T03:42:42.491Z,183.20
2022-11-29T03:43:42.452Z,98.40
2022-11-29T03:44:42.719Z,177.40
2022-11-29T03:45:42.456Z,178.10
2022-11-29T03:46:42.505Z,128.10
2022-11-29T03:47:42.411Z,161.30
2022-11-29T03:48:42.390Z,169.60
2022-11-29T03:49:42.391Z,150.60
2022-11-29T03:50:42.425Z,134.90
2022-11-29T03:51:42.372Z,191.80
2022-11-29T03:52:42.366Z,176.70
2022-11-29T03:53:42.335Z,130.80
2022-11-29T03:54:42.821Z,154.90
2022-11-29T03:55:42.354Z,171.90
2022-11-29T03:56:42.325Z,170.90
2022-11-29T03:57:42.295Z,158.80
2022-11-29T03:58:42.293Z,145.00
2022-11-29T03:59:42.274Z,178.30
2022-11-29T04:00:42.307Z,136.40
2022-11-29T04:01:42.303Z,141.70
2022-11-29T04:02:42.378Z,200.20
2022-11-29T04:03:42.246Z,164.80
2022-11-29T04:04:42.324Z,159.60
2022-11-29T04:05:42.227Z,192.80
2022-11-29T04:06:42.198Z,134.40
2022-11-29T04:07:42.229Z,142.60
2022-11-29T04:08:42.182Z,199.20
2022-11-29T04:09:42.154Z,139.10
2022-11-29T04:10:42.183Z,152.30
2022-11-29T04:11:42.133Z,132.00
2022-11-29T04:12:42.144Z,156.80
2022-11-29T04:13:42.120Z,126.30
2022-11-29T04:14:42.291Z,147.50
2022-11-29T04:15:42.185Z,126.90
2022-11-29T04:16:42.073Z,163.80
2022-11-29T04:17:42.087Z,189.00
2022-11-29T04:18:42.058Z,118.30
2022-11-29T04:19:42.065Z,194.30
2022-11-29T04:20:46.669Z,180.10
2022-11-29T04:21:43.048Z,150.50
2022-11-29T04:22:42.020Z,128.90
2022-11-29T04:23:42.024Z,190.00
2022-11-29T04:24:42.216Z,196.00
2022-11-29T04:25:42.046Z,184.30
2022-11-29T04:26:41.994Z,186.70
2022-11-29T04:27:41.966Z,150.00
2022-11-29T04:28:41.953Z,216.50
2022-11-29T04:29:41.932Z,209.80
2022-11-29T04:30:41.970Z,163.00
2022-11-29T04:31:41.929Z,191.90
2022-11-29T04:32:41.908Z,216.50
2022-11-29T04:33:41.907Z,175.00
2022-11-29T04:34:42.330Z,178.40
2022-11-29T04:35:41.904Z,210.40
2022-11-29T04:36:41.853Z,203.60
2022-11-29T04:37:41.863Z,216.40
2022-11-29T04:38:41.819Z,177.30
2022-11-29T04:39:41.821Z,179.50
2022-11-29T04:40:41.837Z,218.50
2022-11-29T04:41:41.807Z,216.50
2022-11-29T04:42:41.794Z,179.20
2022-11-29T04:43:41.772Z,276.60
2022-11-29T04:44:41.874Z,199.30
2022-11-29T04:45:41.805Z,220.00
2022-11-29T04:46:41.790Z,174.30
2022-11-29T04:47:41.737Z,229.00
2022-11-29T04:48:41.721Z,358.30
2022-11-29T04:49:41.722Z,175.60
2022-11-29T04:50:41.730Z,220.20
2022-11-29T04:51:41.713Z,186.80
2022-11-29T04:52:41.695Z,169.90
2022-11-29T04:53:41.671Z,214.10
2022-11-29T04:54:41.821Z,182.40
2022-11-29T04:55:41.691Z,170.50
2022-11-29T04:56:41.642Z,185.70
2022-11-29T04:57:41.645Z,189.10
2022-11-29T04:58:41.629Z,191.00
2022-11-29T04:59:41.603Z,175.20
2022-11-29T05:00:41.631Z,204.90
2022-11-29T05:01:41.612Z,176.30
2022-11-29T05:02:41.630Z,328.00
2022-11-29T05:03:41.562Z,327.10
2022-11-29T05:04:41.541Z,297.80
2022-11-29T05:05:41.545Z,312.30
2022-11-29T05:06:41.567Z,304.30
2022-11-29T05:07:41.570Z,300.80
2022-11-29T05:08:41.496Z,306.90
2022-11-29T05:09:41.506Z,304.30
2022-11-29T05:10:41.493Z,106.50
2022-11-29T05:11:41.490Z,96.00
2022-11-29T05:12:41.455Z,111.90
2022-11-29T05:13:41.437Z,155.80
2022-11-29T05:14:41.522Z,128.20
2022-11-29T05:15:41.487Z,101.70
2022-11-29T05:16:41.450Z,103.10
2022-11-29T05:17:41.399Z,174.80
2022-11-29T05:18:41.397Z,334.40
2022-11-29T05:19:41.384Z,331.90
2022-11-29T05:20:41.350Z,326.80
2022-11-29T05:21:41.397Z,308.90
2022-11-29T05:22:41.351Z,299.60
2022-11-29T05:23:41.359Z,299.40
2022-11-29T05:24:41.374Z,304.10
2022-11-29T05:25:41.332Z,74.10
2022-11-29T05:26:41.328Z,99.00
2022-11-29T05:27:41.293Z,138.40
2022-11-29T05:28:41.304Z,142.60
2022-11-29T05:29:41.267Z,84.80
2022-11-29T05:30:41.280Z,102.40
2022-11-29T05:31:41.292Z,156.40
2022-11-29T05:32:41.253Z,121.80
2022-11-29T05:33:41.257Z,127.20
2022-11-29T05:34:41.198Z,109.60
2022-11-29T05:35:41.214Z,152.60
2022-11-29T05:36:41.217Z,104.50
2022-11-29T05:37:41.175Z,185.00
2022-11-29T05:38:41.169Z,357.30
2022-11-29T05:39:41.140Z,342.60
2022-11-29T05:40:41.149Z,334.90
2022-11-29T05:41:41.162Z,317.00
2022-11-29T05:42:41.196Z,313.70
2022-11-29T05:43:41.091Z,313.40
2022-11-29T05:44:41.089Z,318.30
2022-11-29T05:45:41.079Z,310.90
2022-11-29T05:46:41.108Z,313.50
2022-11-29T05:47:41.093Z,320.40
2022-11-29T05:48:41.060Z,314.90
2022-11-29T05:49:41.034Z,303.90
2022-11-29T05:50:41.035Z,308.20
2022-11-29T05:51:41.025Z,317.90
2022-11-29T05:52:41.042Z,308.60
2022-11-29T05:53:40.979Z,215.90
2022-11-29T05:54:40.974Z,321.50
2022-11-29T05:55:40.991Z,295.60
2022-11-29T05:56:40.952Z,308.90
2022-11-29T05:57:40.967Z,228.00
2022-11-29T05:58:40.969Z,132.80
2022-11-29T05:59:40.939Z,89.50
2022-11-29T06:00:40.920Z,164.90
2022-11-29T06:01:40.919Z,149.80
2022-11-29T06:02:40.978Z,141.20
2022-11-29T06:03:40.874Z,108.80
2022-11-29T06:04:40.893Z,89.10
2022-11-29T06:05:40.868Z,160.10
2022-11-29T06:06:40.838Z,185.80
2022-11-29T06:07:40.915Z,128.80
2022-11-29T06:08:40.823Z,102.10
2022-11-29T06:09:40.825Z,117.80
2022-11-29T06:10:40.807Z,188.50
2022-11-29T06:11:40.795Z,118.00
2022-11-29T06:12:40.837Z,84.60
2022-11-29T06:13:40.766Z,125.50
2022-11-29T06:14:40.755Z,195.40
2022-11-29T06:15:40.743Z,96.20
2022-11-29T06:16:40.724Z,98.20
2022-11-29T06:17:40.736Z,88.70
2022-11-29T06:18:40.703Z,155.20
2022-11-29T06:19:40.704Z,178.70
2022-11-29T06:20:40.709Z,84.70
2022-11-29T06:21:40.684Z,162.10
2022-11-29T06:22:40.714Z,188.60
2022-11-29T06:23:40.665Z,96.10
2022-11-29T06:24:40.663Z,131.90
2022-11-29T06:25:40.651Z,168.10
2022-11-29T06:26:40.617Z,113.70
2022-11-29T06:27:40.634Z,88.10
2022-11-29T06:28:40.640Z,198.30
2022-11-29T06:29:40.573Z,166.00
2022-11-29T06:30:40.576Z,112.10
2022-11-29T06:31:40.614Z,198.60
2022-11-29T06:32:40.596Z,131.40
2022-11-29T06:33:40.531Z,89.40
2022-11-29T06:34:40.534Z,213.10
2022-11-29T06:35:40.519Z,124.50
2022-11-29T06:36:40.509Z,93.40
2022-11-29T06:37:40.529Z,97.30
2022-11-29T06:38:40.480Z,202.60
2022-11-29T06:39:40.502Z,163.40
2022-11-29T06:40:40.470Z,124.50
2022-11-29T06:41:40.473Z,124.50
2022-11-29T06:42:40.518Z,92.80
2022-11-29T06:43:40.446Z,151.70
2022-11-29T06:44:40.419Z,155.60
2022-11-29T06:45:40.404Z,222.00
2022-11-29T06:46:40.460Z,100.70
2022-11-29T06:47:40.379Z,96.70
2022-11-29T06:48:40.399Z,213.10
2022-11-29T06:49:40.361Z,141.30
2022-11-29T06:50:40.344Z,98.40
2022-11-29T06:51:40.407Z,229.90
2022-11-29T06:52:40.323Z,94.90
2022-11-29T06:53:40.338Z,113.60
2022-11-29T06:54:40.302Z,207.90
2022-11-29T06:55:40.312Z,119.60
2022-11-29T06:56:40.998Z,250.30
2022-11-29T06:57:40.281Z,102.90
2022-11-29T06:58:40.320Z,127.80
2022-11-29T06:59:40.241Z,214.70
2022-11-29T07:00:40.292Z,120.20
2022-11-29T07:01:40.314Z,122.70
2022-11-29T07:02:40.224Z,164.90
2022-11-29T07:03:40.256Z,206.80
2022-11-29T07:04:45.677Z,122.20
2022-11-29T07:05:41.166Z,144.00
2022-11-29T07:06:40.186Z,118.00
2022-11-29T07:07:40.213Z,180.50
2022-11-29T07:08:40.186Z,215.40
2022-11-29T07:09:40.147Z,173.80
2022-11-29T07:10:40.167Z,187.20
2022-11-29T07:11:40.144Z,183.80
2022-11-29T07:12:40.122Z,192.90
2022-11-29T07:13:40.113Z,175.90
2022-11-29T07:14:40.109Z,145.90
2022-11-29T07:15:40.070Z,162.20
2022-11-29T07:16:40.123Z,227.40
2022-11-29T07:17:40.038Z,182.90
2022-11-29T07:18:40.082Z,165.60
2022-11-29T07:19:40.025Z,219.90
2022-11-29T07:20:40.005Z,194.90
2022-11-29T07:21:39.984Z,197.70
2022-11-29T07:22:39.992Z,204.10
2022-11-29T07:23:40.028Z,211.20
2022-11-29T07:24:39.968Z,172.40
2022-11-29T07:25:39.965Z,166.60
2022-11-29T07:26:39.943Z,199.40
2022-11-29T07:27:39.937Z,228.00
2022-11-29T07:28:39.972Z,196.20
2022-11-29T07:29:39.942Z,241.00
2022-11-29T07:30:39.906Z,222.30
2022-11-29T07:31:39.931Z,210.30
2022-11-29T07:32:39.906Z,247.80
2022-11-29T07:33:39.855Z,214.70
2022-11-29T07:34:39.926Z,265.80
2022-11-29T07:35:39.855Z,258.00
2022-11-29T07:36:39.840Z,271.40
2022-11-29T07:37:39.833Z,293.30
2022-11-29T07:38:39.831Z,301.10
2022-11-29T07:39:39.828Z,254.60
2022-11-29T07:40:39.789Z,247.20
2022-11-29T07:41:39.781Z,267.80
2022-11-29T07:42:39.785Z,304.30
2022-11-29T07:43:39.763Z,274.10
2022-11-29T07:44:39.816Z,286.60
2022-11-29T07:45:39.742Z,267.80
2022-11-29T07:46:39.761Z,276.80
2022-11-29T07:47:39.712Z,238.50
2022-11-29T07:48:39.702Z,302.50
2022-11-29T07:49:39.731Z,274.30
2022-11-29T07:50:39.703Z,314.90
2022-11-29T07:51:39.681Z,290.50
2022-11-29T07:52:39.659Z,322.20
2022-11-29T07:53:39.638Z,292.90
2022-11-29T07:54:39.652Z,321.40
2022-11-29T07:55:39.669Z,324.60
2022-11-29T07:56:39.596Z,328.70
2022-11-29T07:57:39.601Z,310.30
2022-11-29T07:58:39.678Z,319.70
2022-11-29T07:59:39.640Z,284.00
2022-11-29T08:00:39.616Z,307.10
2022-11-29T08:01:39.576Z,350.40
2022-11-29T08:02:39.617Z,551.90
2022-11-29T08:03:39.564Z,391.90
2022-11-29T08:04:39.541Z,451.90
2022-11-29T08:05:39.561Z,675.40
2022-11-29T08:06:39.493Z,498.80
2022-11-29T08:07:39.501Z,363.40
2022-11-29T08:08:43.963Z,513.50
2022-11-29T08:09:40.464Z,698.40
2022-11-29T08:10:39.485Z,559.50
2022-11-29T08:11:39.449Z,402.60
2022-11-29T08:12:39.456Z,669.10
2022-11-29T08:13:39.415Z,972.80
2022-11-29T08:14:39.403Z,816.80
2022-11-29T08:15:39.418Z,522.70
2022-11-29T08:16:39.470Z,674.50
2022-11-29T08:17:39.389Z,415.70
2022-11-29T08:18:39.350Z,434.60
2022-11-29T08:19:39.380Z,634.30
2022-11-29T08:20:39.386Z,606.20
2022-11-29T08:21:39.340Z,999.90
2022-11-29T08:22:39.316Z,999.90
2022-11-29T08:23:39.277Z,730.50
2022-11-29T08:24:39.288Z,748.20
2022-11-29T08:25:39.309Z,635.50
2022-11-29T08:26:39.279Z,999.90
2022-11-29T08:27:39.265Z,428.30
2022-11-29T08:28:39.259Z,663.00
2022-11-29T08:29:39.255Z,838.80
2022-11-29T08:30:39.267Z,613.30
2022-11-29T08:31:39.295Z,505.10
2022-11-29T08:32:39.206Z,999.90
2022-11-29T08:33:39.195Z,999.90
2022-11-29T08:34:39.205Z,549.40
2022-11-29T08:35:39.222Z,223.10
2022-11-29T08:36:39.161Z,200.90
2022-11-29T08:37:39.147Z,532.30
2022-11-29T08:38:39.155Z,490.70
2022-11-29T08:39:39.128Z,999.90
2022-11-29T08:40:39.187Z,537.40
2022-11-29T08:41:39.128Z,264.70
2022-11-29T08:42:39.079Z,348.50
2022-11-29T08:43:39.090Z,444.70
2022-11-29T08:44:39.087Z,482.40
2022-11-29T08:45:39.106Z,476.30
2022-11-29T08:46:39.066Z,428.00
2022-11-29T08:47:39.057Z,280.90
2022-11-29T08:48:39.036Z,231.20
2022-11-29T08:49:39.008Z,348.00
2022-11-29T08:50:39.043Z,188.80
2022-11-29T08:51:39.006Z,999.90
2022-11-29T08:52:39.010Z,999.90
2022-11-29T08:53:38.995Z,89.80
2022-11-29T08:54:38.972Z,83.00
2022-11-29T08:55:38.961Z,128.00
2022-11-29T08:57:40.979Z,999.90
2022-11-29T08:58:38.939Z,999.90
2022-11-29T08:59:38.906Z,999.90
2022-11-29T09:00:39.186Z,999.90
2022-11-29T09:01:38.956Z,999.90
2022-11-29T09:02:38.914Z,999.90
2022-11-29T09:03:38.843Z,195.90
2022-11-29T09:04:38.866Z,270.30
2022-11-29T09:05:38.893Z,170.50
2022-11-29T09:06:38.826Z,999.90
2022-11-29T09:07:38.845Z,212.20
2022-11-29T09:08:38.804Z,244.00
2022-11-29T09:09:38.780Z,179.60
2022-11-29T09:10:38.827Z,999.90
2022-11-29T09:11:38.758Z,999.90
2022-11-29T09:12:38.737Z,999.90
2022-11-29T09:13:38.750Z,999.90
2022-11-29T09:14:38.732Z,999.90
2022-11-29T09:15:38.781Z,271.40
2022-11-29T09:16:38.804Z,999.90
2022-11-29T09:17:38.713Z,999.90
2022-11-29T09:18:38.693Z,999.90
2022-11-29T09:19:38.691Z,999.90
2022-11-29T09:20:38.725Z,999.90
2022-11-29T09:21:38.659Z,999.90
2022-11-29T09:22:38.664Z,203.20
2022-11-29T09:23:38.646Z,999.90
2022-11-29T09:24:38.634Z,999.90
2022-11-29T09:25:38.644Z,390.90
2022-11-29T09:26:38.583Z,253.70
2022-11-29T09:27:38.590Z,999.90
2022-11-29T09:28:38.569Z,999.90
2022-11-29T09:29:38.571Z,999.90
2022-11-29T09:30:38.637Z,999.90
2022-11-29T09:31:38.579Z,999.90
2022-11-29T09:32:38.544Z,423.00
2022-11-29T09:33:38.522Z,999.90
2022-11-29T09:34:38.533Z,999.90
2022-11-29T09:35:38.544Z,999.90
2022-11-29T09:36:38.492Z,999.90
2022-11-29T09:37:38.469Z,999.90
2022-11-29T09:38:38.492Z,999.90
2022-11-29T09:39:38.458Z,238.00
2022-11-29T09:40:38.485Z,999.90
2022-11-29T09:41:38.432Z,999.90
2022-11-29T09:42:38.417Z,999.90
2022-11-29T09:43:38.402Z,999.90
2022-11-29T09:44:38.373Z,423.50
2022-11-29T09:45:38.455Z,299.60
2022-11-29T09:46:38.385Z,341.80
2022-11-29T09:47:38.368Z,183.50
2022-11-29T09:48:38.344Z,999.90
2022-11-29T09:49:38.331Z,999.90
2022-11-29T09:50:38.402Z,66.70
2022-11-29T09:51:42.759Z,999.90
2022-11-29T09:52:39.315Z,999.90
2022-11-29T09:53:38.305Z,999.90
2022-11-29T09:54:38.272Z,999.90
2022-11-29T09:55:38.319Z,96.00
2022-11-29T09:56:38.277Z,999.90
2022-11-29T09:57:38.267Z,999.90
2022-11-29T09:58:38.220Z,999.90
2022-11-29T09:59:38.204Z,999.90
2022-11-29T10:00:38.258Z,999.90
2022-11-29T10:01:38.252Z,999.90
2022-11-29T10:02:38.210Z,999.90
2022-11-29T10:03:38.193Z,499.70
2022-11-29T10:04:38.154Z,999.90
2022-11-29T10:05:38.203Z,999.90
2022-11-29T10:06:38.173Z,543.40
2022-11-29T10:07:38.191Z,999.90
2022-11-29T10:08:38.141Z,999.90
2022-11-29T10:09:38.108Z,999.90
2022-11-29T10:10:38.136Z,999.90
2022-11-29T10:11:38.100Z,173.70
2022-11-29T10:12:38.087Z,999.90
2022-11-29T10:13:38.079Z,999.90
2022-11-29T10:14:38.067Z,999.90
2022-11-29T10:15:38.090Z,999.90
2022-11-29T10:16:38.099Z,999.90
2022-11-29T10:17:38.021Z,134.40
2022-11-29T10:18:38.020Z,999.90
2022-11-29T10:19:38.007Z,999.90
2022-11-29T10:20:42.498Z,999.90
2022-11-29T10:21:38.977Z,999.90
2022-11-29T10:22:37.975Z,999.90
2022-11-29T10:23:37.946Z,999.90
2022-11-29T10:24:37.970Z,999.90
2022-11-29T10:25:37.986Z,999.90
2022-11-29T10:26:37.907Z,999.90
2022-11-29T10:27:37.909Z,999.90
2022-11-29T10:28:37.898Z,999.90
2022-11-29T10:29:37.885Z,999.90
2022-11-29T10:30:37.903Z,999.90
2022-11-29T10:31:37.890Z,999.90
2022-11-29T10:32:37.856Z,999.90
2022-11-29T10:33:37.844Z,999.90
2022-11-29T10:34:37.825Z,999.90
2022-11-29T10:35:37.817Z,999.90
2022-11-29T10:36:37.838Z,999.90
2022-11-29T10:37:37.798Z,999.90
2022-11-29T10:38:37.809Z,999.90
2022-11-29T10:39:37.764Z,999.90
2022-11-29T10:40:37.780Z,999.90
2022-11-29T10:41:37.782Z,999.90
2022-11-29T10:42:37.712Z,999.90
2022-11-29T10:43:37.741Z,999.90
2022-11-29T10:44:37.739Z,999.90
2022-11-29T10:45:37.844Z,999.90
2022-11-29T10:46:37.750Z,999.90
2022-11-29T10:47:37.738Z,999.90
2022-11-29T10:48:37.676Z,999.90
2022-11-29T10:49:37.651Z,999.90
2022-11-29T10:50:37.645Z,999.90
2022-11-29T10:51:37.665Z,999.90
2022-11-29T10:52:37.620Z,999.90
2022-11-29T10:53:37.628Z,999.90
2022-11-29T10:54:37.602Z,999.90
2022-11-29T10:55:37.587Z,999.90
2022-11-29T10:56:37.608Z,999.90
2022-11-29T10:57:37.572Z,999.90
2022-11-29T10:58:37.533Z,999.90
2022-11-29T10:59:37.549Z,999.90
2022-11-29T11:00:37.532Z,999.90
2022-11-29T11:01:37.603Z,999.90
2022-11-29T11:02:37.489Z,999.90
2022-11-29T11:03:37.481Z,999.90
2022-11-29T11:04:37.483Z,999.90
2022-11-29T11:05:37.499Z,999.90
2022-11-29T11:06:37.490Z,999.90
2022-11-29T11:07:37.513Z,999.90
2022-11-29T11:08:37.449Z,999.90
2022-11-29T11:09:37.444Z,999.90
2022-11-29T11:10:37.428Z,999.90
2022-11-29T11:11:37.438Z,999.90
2022-11-29T11:12:37.395Z,999.90
2022-11-29T11:13:37.395Z,999.90
2022-11-29T11:14:37.359Z,999.90
2022-11-29T11:15:37.362Z,999.90
2022-11-29T11:16:37.930Z,999.90
2022-11-29T11:17:37.368Z,999.90
2022-11-29T11:18:37.331Z,999.90
2022-11-29T11:19:37.321Z,999.90
2022-11-29T11:20:37.309Z,999.90
2022-11-29T11:21:37.351Z,999.90
2022-11-29T11:22:37.289Z,999.90
2022-11-29T11:23:41.385Z,999.90
2022-11-29T11:24:38.283Z,999.90
2022-11-29T11:25:37.262Z,999.90
2022-11-29T11:26:37.276Z,999.90
2022-11-29T11:27:37.255Z,999.90
2022-11-29T11:28:37.238Z,999.90
2022-11-29T11:29:37.227Z,999.90
2022-11-29T11:30:37.252Z,999.90
2022-11-29T11:31:37.208Z,999.90
2022-11-29T11:32:37.180Z,999.90
2022-11-29T11:33:37.160Z,999.90
2022-11-29T11:34:37.140Z,999.90
2022-11-29T11:35:37.159Z,999.90
2022-11-29T11:36:37.158Z,999.90
2022-11-29T11:37:37.136Z,999.90
2022-11-29T11:38:37.107Z,999.90
2022-11-29T11:39:37.093Z,999.90
2022-11-29T11:40:37.109Z,999.90
2022-11-29T11:41:37.158Z,999.90
2022-11-29T11:42:37.061Z,999.90
2022-11-29T11:43:37.038Z,958.10
2022-11-29T11:44:52.573Z,999.90
2022-11-29T11:45:38.043Z,999.90
2022-11-29T11:46:37.130Z,999.90
2022-11-29T11:47:37.006Z,999.90
2022-11-29T11:48:37.009Z,999.90
2022-11-29T11:49:36.984Z,999.90
2022-11-29T11:50:36.965Z,242.70
2022-11-29T11:51:37.000Z,999.90
2022-11-29T11:52:40.520Z,999.90
2022-11-29T11:53:36.947Z,999.90
2022-11-29T11:54:36.966Z,999.90
2022-11-29T11:55:36.940Z,999.90
2022-11-29T11:56:36.946Z,999.90
2022-11-29T11:57:36.897Z,999.90
2022-11-29T11:58:36.872Z,999.90
2022-11-29T11:59:36.899Z,999.90
2022-11-29T12:01:02.375Z,999.90
2022-11-29T12:01:37.896Z,999.90
2022-11-29T12:02:36.937Z,999.90
2022-11-29T12:03:36.885Z,999.90
2022-11-29T12:04:36.810Z,999.90
2022-11-29T12:05:36.797Z,999.90
2022-11-29T12:06:36.779Z,999.90
2022-11-29T12:08:06.954Z,999.90
2022-11-29T12:08:37.814Z,999.90
2022-11-29T12:09:36.777Z,999.90
2022-11-29T12:10:36.766Z,999.90
2022-11-29T12:11:36.746Z,999.90
2022-11-29T12:12:36.783Z,999.90
2022-11-29T12:13:36.717Z,999.90
2022-11-29T12:14:36.694Z,999.90
2022-11-29T12:15:36.746Z,999.90
2022-11-29T12:16:36.681Z,999.90
2022-11-29T12:17:36.714Z,999.90
2022-11-29T12:18:36.663Z,999.90
2022-11-29T12:19:36.666Z,999.90
2022-11-29T12:20:36.629Z,999.90
2022-11-29T12:21:36.627Z,999.90
2022-11-29T12:22:36.665Z,999.90
2022-11-29T12:23:36.623Z,999.90
2022-11-29T12:24:36.620Z,999.90
2022-11-29T12:25:36.598Z,999.90
2022-11-29T12:27:37.607Z,999.90
2022-11-29T12:28:36.535Z,999.90
2022-11-29T12:29:36.550Z,999.90
2022-11-29T12:30:36.520Z,999.90
2022-11-29T12:31:36.586Z,999.90